Open Full Screen Window  High Contrast Mode
Wind Gusting 00 knots
06
February 27, 2015 4:03 PM EST
Weather Information
Wind Direction
  250 °
Wind Speed
  06 kt (7 mph)
Wind Gust
  00 kt (0 mph)
Altimeter
30.51 in
Visibility
10 SM
Temperature
-07° C
19° F
Dewpoint
-16° C
F
Humidity
49%
1hr Rain Fall
00.00 in.
24hr Rain Fall
00.00 in.
Sky Condition
Scattered @ 3,900 ft
VFR

METAR KIKW 272103Z AUTO 25006KT 10SM SCT039 M07/M16 A3051 RMK AO2 T10751163

*Background is not an actual portrayal of the airport.